KMRY/MRY METAR and TAF weather

Enter ICAO airport designator
Station Type Date Time Source
KMRY METAR 2020/04/02 02:54 UTC NOAA

KMRY 020254Z 27006KT 10SM SCT024 12/05 A3001 RMK AO2 SLP173 T01220050 53002


Station Type Date Time Source
KMRY Decoded METAR 2020/04/02 02:54 UTC NOAA

MONTEREY PENINSULA AIRPORT, CA, United States (KMRY) 36-35N 121-51W 66M
Apr 01, 2020 - 10:54 PM EDT / 2020.04.02 0254 UTC
Wind: from the W (270 degrees) at 7 MPH (6 KT):0
Visibility: 10 mile(s):0
Sky conditions: partly cloudy
Temperature: 54.0 F (12.2 C)
Dew Point: 41.0 F (5.0 C)
Relative Humidity: 61%
Pressure (altimeter): 30.01 in. Hg (1016 hPa)
Pressure tendency: 0.01 inches (0.2 hPa) higher than three hours ago
ob: KMRY 020254Z 27006KT 10SM SCT024 12/05 A3001 RMK AO2 SLP173 T01220050 53002
cycle: 3

Station Type Date Time Source
KMRY TAF 2020/04/01 18:30 UTC NOAA

TAF KMRY 011728Z 0118/0218 31010KT P6SM SKC
FM011900 30015G20KT P6SM SKC
FM020200 30010G15KT P6SM FEW018
FM020500 26008KT P6SM FEW015
FM021000 VRB04KT P6SM FEW015
FM021600 30005KT P6SM FEW015

Example: see airport list